Time;durP1;ratioP1;P1;durP2;ratioP2;P2;SDS_P1;SDS_P2;PMS_P1;PMS_P2;Temp;Humidity;BMP_temperature;BMP_pressure;BME280_temperature;BME280_humidity;BME280_pressure;Samples;Min_cycle;Max_cycle;Signal;HPM_P1;HPM_P2
2022/05/22 00:02:02;;;;;;;13.73;7.05;;;;;;;;;;5053781;28;20436;-81
2022/05/22 00:04:28;;;;;;;15.80;7.88;;;;;;;;;;5060966;28;20550;-81
2022/05/22 00:06:54;;;;;;;15.50;7.65;;;;;;;;;;5059366;28;20051;-81
2022/05/22 00:09:20;;;;;;;19.08;8.88;;;;;;;;;;5057368;28;20041;-81
2022/05/22 00:11:47;;;;;;;13.40;8.55;;;;;;;;;;5050104;28;20052;-81
2022/05/22 00:14:13;;;;;;;15.55;8.40;;;;;;;;;;5050181;28;20061;-81
2022/05/22 00:16:42;;;;;;;12.90;8.38;;;;;;;;;;5050738;28;20096;-81
2022/05/22 00:19:13;;;;;;;14.07;8.25;;;;;;;;;;5050509;28;20080;-81
2022/05/22 00:21:40;;;;;;;13.68;8.05;;;;;;;;;;5060357;28;20063;-81
2022/05/22 00:24:06;;;;;;;17.35;9.05;;;;;;;;;;5070908;28;20036;-81
2022/05/22 00:26:33;;;;;;;15.32;8.18;;;;;;;;;;5070843;28;20045;-81
2022/05/22 00:28:59;;;;;;;16.80;8.65;;;;;;;;;;5058038;28;20103;-81
2022/05/22 00:31:25;;;;;;;15.25;8.23;;;;;;;;;;5070081;28;20472;-81
2022/05/22 00:33:51;;;;;;;17.08;8.80;;;;;;;;;;5051970;28;20091;-81
2022/05/22 00:36:17;;;;;;;13.57;8.25;;;;;;;;;;5048424;28;20103;-81
2022/05/22 00:38:43;;;;;;;13.95;8.23;;;;;;;;;;5049650;28;20048;-81
2022/05/22 00:41:10;;;;;;;19.63;8.77;;;;;;;;;;5050667;28;20490;-81
2022/05/22 00:43:38;;;;;;;15.95;8.75;;;;;;;;;;5050309;28;20040;-81
2022/05/22 00:46:06;;;;;;;14.05;7.88;;;;;;;;;;5049731;28;20071;-82
2022/05/22 00:48:32;;;;;;;17.90;8.65;;;;;;;;;;5049467;28;20143;-81
2022/05/22 00:51:04;;;;;;;15.65;8.38;;;;;;;;;;5055127;28;20198;-81
2022/05/22 00:53:32;;;;;;;19.70;9.65;;;;;;;;;;5049453;28;20186;-81
2022/05/22 00:55:59;;;;;;;14.68;8.68;;;;;;;;;;5060646;28;20060;-81
2022/05/22 00:58:27;;;;;;;16.35;9.15;;;;;;;;;;5069006;28;20048;-82
2022/05/22 01:00:53;;;;;;;17.77;8.68;;;;;;;;;;5051924;28;20119;-81
2022/05/22 01:03:28;;;;;;;18.83;9.45;;;;;;;;;;5050338;28;20052;-82
2022/05/22 01:05:54;;;;;;;14.07;9.13;;;;;;;;;;5063161;28;20119;-81
2022/05/22 01:08:21;;;;;;;20.92;9.73;;;;;;;;;;5068975;28;20048;-82
2022/05/22 01:10:54;;;;;;;16.55;9.38;;;;;;;;;;5070205;28;20044;-81
2022/05/22 01:13:22;;;;;;;15.85;8.35;;;;;;;;;;5056875;28;20477;-81
2022/05/22 01:15:49;;;;;;;19.33;9.60;;;;;;;;;;5050075;28;20068;-81
2022/05/22 01:18:15;;;;;;;16.33;9.40;;;;;;;;;;5069878;28;20485;-81
2022/05/22 01:20:48;;;;;;;16.35;8.88;;;;;;;;;;5066810;28;20390;-81
2022/05/22 01:23:15;;;;;;;21.25;10.88;;;;;;;;;;5058804;28;20178;-81
2022/05/22 01:25:41;;;;;;;17.13;9.68;;;;;;;;;;5069239;28;20052;-81
2022/05/22 01:28:08;;;;;;;17.42;10.10;;;;;;;;;;5048897;28;20041;-81
2022/05/22 01:30:34;;;;;;;15.18;10.10;;;;;;;;;;5057239;28;20076;-81
2022/05/22 01:33:00;;;;;;;17.35;10.50;;;;;;;;;;5068398;28;20121;-81
2022/05/22 01:35:28;;;;;;;20.25;10.48;;;;;;;;;;5059093;28;20049;-81
2022/05/22 01:37:56;;;;;;;17.33;10.10;;;;;;;;;;5048584;28;20127;-81
2022/05/22 01:40:22;;;;;;;22.80;10.88;;;;;;;;;;5048522;28;20056;-81
2022/05/22 01:42:48;;;;;;;17.85;11.40;;;;;;;;;;5046604;28;20517;-81
2022/05/22 01:45:18;;;;;;;15.20;10.77;;;;;;;;;;5047548;28;20077;-81
2022/05/22 01:47:44;;;;;;;15.85;11.52;;;;;;;;;;5048096;28;20509;-81
2022/05/22 01:50:10;;;;;;;21.17;11.77;;;;;;;;;;5054224;28;20608;-81
2022/05/22 01:52:36;;;;;;;21.40;11.07;;;;;;;;;;5069726;28;20404;-81
2022/05/22 01:55:03;;;;;;;21.63;11.50;;;;;;;;;;5062577;28;20518;-81
2022/05/22 01:57:30;;;;;;;20.98;11.05;;;;;;;;;;5069067;28;20037;-81
2022/05/22 01:59:56;;;;;;;17.80;11.45;;;;;;;;;;5059561;28;20513;-81
2022/05/22 02:02:22;;;;;;;19.88;11.60;;;;;;;;;;5048755;28;20076;-81
2022/05/22 02:04:48;;;;;;;21.13;11.23;;;;;;;;;;5049674;28;20565;-81
2022/05/22 02:09:59;;;;;;;18.05;10.32;;;;;;;;;;5058283;28;20048;-81
2022/05/22 02:12:25;;;;;;;20.17;10.82;;;;;;;;;;5067844;28;20129;-81
2022/05/22 02:14:51;;;;;;;20.80;10.63;;;;;;;;;;5069140;28;20040;-81
2022/05/22 02:17:17;;;;;;;19.33;11.05;;;;;;;;;;5061074;28;20125;-81
2022/05/22 02:19:43;;;;;;;14.93;10.77;;;;;;;;;;5049397;28;20045;-81
2022/05/22 02:22:10;;;;;;;18.00;11.10;;;;;;;;;;5061626;28;20047;-81
2022/05/22 02:24:36;;;;;;;21.08;10.80;;;;;;;;;;5049031;28;20387;-81
2022/05/22 02:27:08;;;;;;;18.73;10.77;;;;;;;;;;5052397;28;20505;-81
2022/05/22 02:29:35;;;;;;;20.17;11.02;;;;;;;;;;5052201;28;20059;-81
2022/05/22 02:32:01;;;;;;;21.73;11.43;;;;;;;;;;5051740;28;20037;-81
2022/05/22 02:34:27;;;;;;;19.25;10.77;;;;;;;;;;5051826;28;20102;-81
2022/05/22 02:36:53;;;;;;;20.30;11.00;;;;;;;;;;5069184;28;20069;-82
2022/05/22 02:39:19;;;;;;;19.65;11.20;;;;;;;;;;5071300;28;20088;-81
2022/05/22 02:41:45;;;;;;;19.58;10.80;;;;;;;;;;5073109;28;20037;-81
2022/05/22 02:44:12;;;;;;;18.52;10.02;;;;;;;;;;5073206;28;20094;-81
2022/05/22 02:46:38;;;;;;;17.50;11.02;;;;;;;;;;5059157;28;20044;-81
2022/05/22 02:49:04;;;;;;;20.48;11.13;;;;;;;;;;5051523;28;20073;-81
2022/05/22 02:51:30;;;;;;;20.13;10.32;;;;;;;;;;5067495;28;20075;-81
2022/05/22 02:53:56;;;;;;;19.92;11.13;;;;;;;;;;5065220;28;20124;-81
2022/05/22 02:56:25;;;;;;;15.23;9.55;;;;;;;;;;5052715;28;20063;-82
2022/05/22 02:58:51;;;;;;;16.17;9.65;;;;;;;;;;5050485;28;20048;-81
2022/05/22 03:01:17;;;;;;;20.17;9.82;;;;;;;;;;5052694;28;20076;-82
2022/05/22 03:03:43;;;;;;;21.05;10.68;;;;;;;;;;5053635;28;20060;-81
2022/05/22 03:08:54;;;;;;;12.77;8.18;;;;;;;;;;5072131;28;20124;-81
2022/05/22 03:11:20;;;;;;;11.63;7.88;;;;;;;;;;5072546;28;20115;-81
2022/05/22 03:13:46;;;;;;;14.27;8.23;;;;;;;;;;5061812;28;20083;-81
2022/05/22 03:16:12;;;;;;;11.40;8.20;;;;;;;;;;5051042;28;20056;-81
2022/05/22 03:18:39;;;;;;;11.07;7.43;;;;;;;;;;5054161;28;20048;-81
2022/05/22 03:21:05;;;;;;;8.82;7.00;;;;;;;;;;5072184;28;20394;-81
2022/05/22 03:23:31;;;;;;;13.07;8.50;;;;;;;;;;5071320;28;20041;-81
2022/05/22 03:25:57;;;;;;;19.92;11.40;;;;;;;;;;5070993;28;20090;-81
2022/05/22 03:28:23;;;;;;;21.23;11.00;;;;;;;;;;5061166;28;20489;-81
2022/05/22 03:30:50;;;;;;;16.40;10.70;;;;;;;;;;5051145;28;20489;-81
2022/05/22 03:33:16;;;;;;;19.25;12.60;;;;;;;;;;5062675;28;20045;-81
2022/05/22 03:35:42;;;;;;;19.80;12.60;;;;;;;;;;5070782;28;20045;-81
2022/05/22 03:38:08;;;;;;;20.73;12.57;;;;;;;;;;5071503;28;20067;-81
2022/05/22 03:40:40;;;;;;;20.08;12.50;;;;;;;;;;5071307;28;20404;-81
2022/05/22 03:43:06;;;;;;;20.85;13.02;;;;;;;;;;5052789;28;20041;-81
2022/05/22 03:45:32;;;;;;;19.55;11.82;;;;;;;;;;5050540;28;20045;-80
2022/05/22 03:47:58;;;;;;;18.10;11.70;;;;;;;;;;5052827;28;20135;-81
2022/05/22 03:50:25;;;;;;;17.90;11.77;;;;;;;;;;5071863;28;20048;-82
2022/05/22 03:52:51;;;;;;;20.15;11.60;;;;;;;;;;5070737;28;20048;-81
2022/05/22 03:55:18;;;;;;;19.45;10.98;;;;;;;;;;5071705;28;20445;-81
2022/05/22 03:57:48;;;;;;;16.08;10.15;;;;;;;;;;5060851;28;20127;-81
2022/05/22 04:00:14;;;;;;;12.40;8.85;;;;;;;;;;5051386;28;20048;-81
2022/05/22 04:02:40;;;;;;;13.75;10.13;;;;;;;;;;5056685;28;20072;-81
2022/05/22 04:05:08;;;;;;;16.55;10.05;;;;;;;;;;5070094;28;20149;-81
2022/05/22 04:07:41;;;;;;;19.15;10.50;;;;;;;;;;5069140;28;20487;-81
2022/05/22 04:10:08;;;;;;;18.83;9.90;;;;;;;;;;5069500;28;20045;-81
2022/05/22 04:12:34;;;;;;;14.88;9.48;;;;;;;;;;5043105;28;20088;-81
2022/05/22 04:15:00;;;;;;;17.60;10.52;;;;;;;;;;5049931;28;20106;-81
2022/05/22 04:17:26;;;;;;;23.55;11.05;;;;;;;;;;5050445;28;20057;-81
2022/05/22 04:19:52;;;;;;;17.73;9.85;;;;;;;;;;5049804;28;20045;-81
2022/05/22 04:22:18;;;;;;;18.20;9.23;;;;;;;;;;5049467;28;20060;-82
2022/05/22 04:27:29;;;;;;;16.52;10.05;;;;;;;;;;5055953;28;20135;-81
2022/05/22 04:29:55;;;;;;;15.35;9.93;;;;;;;;;;5049755;28;20190;-81
2022/05/22 04:32:21;;;;;;;18.40;10.30;;;;;;;;;;5057730;28;20549;-81
2022/05/22 04:34:47;;;;;;;20.55;10.75;;;;;;;;;;5054023;28;20051;-81
2022/05/22 04:37:13;;;;;;;22.55;10.80;;;;;;;;;;5070220;28;20048;-81
2022/05/22 04:39:39;;;;;;;19.98;10.68;;;;;;;;;;5067178;28;20511;-81
2022/05/22 04:42:05;;;;;;;16.17;10.40;;;;;;;;;;5056937;28;20405;-81
2022/05/22 04:44:31;;;;;;;17.48;10.15;;;;;;;;;;5051177;28;20044;-81
2022/05/22 04:47:00;;;;;;;18.88;10.48;;;;;;;;;;5049867;28;20055;-82
2022/05/22 04:49:26;;;;;;;20.38;11.02;;;;;;;;;;5050526;28;20052;-81
2022/05/22 04:51:52;;;;;;;21.48;11.75;;;;;;;;;;5058947;28;20040;-81
2022/05/22 04:54:18;;;;;;;20.13;10.98;;;;;;;;;;5069366;28;20120;-82
2022/05/22 04:56:44;;;;;;;17.50;10.27;;;;;;;;;;5029983;28;20055;-82
2022/05/22 04:59:10;;;;;;;16.48;10.18;;;;;;;;;;5068864;28;20485;-81
2022/05/22 05:01:36;;;;;;;14.18;9.75;;;;;;;;;;5069291;28;20117;-82
2022/05/22 05:04:02;;;;;;;18.90;10.25;;;;;;;;;;5068326;28;20046;-81
2022/05/22 05:06:30;;;;;;;17.23;10.35;;;;;;;;;;5068704;28;20540;-82
2022/05/22 05:08:56;;;;;;;15.80;10.05;;;;;;;;;;5064556;28;20055;-82
2022/05/22 05:11:22;;;;;;;14.50;9.98;;;;;;;;;;5058055;28;20407;-82
2022/05/22 05:13:48;;;;;;;16.02;9.88;;;;;;;;;;5051426;28;20063;-81
2022/05/22 05:16:14;;;;;;;17.52;10.30;;;;;;;;;;5048576;28;20084;-81
2022/05/22 05:18:41;;;;;;;15.52;9.38;;;;;;;;;;5058947;28;20055;-82
2022/05/22 05:21:08;;;;;;;18.13;10.02;;;;;;;;;;5068376;28;20049;-81
2022/05/22 05:23:34;;;;;;;17.05;9.55;;;;;;;;;;5056635;28;20128;-81
2022/05/22 05:26:00;;;;;;;14.20;8.80;;;;;;;;;;5049906;28;20037;-82
2022/05/22 05:28:27;;;;;;;13.25;8.65;;;;;;;;;;5048507;28;20048;-82
2022/05/22 05:30:53;;;;;;;16.45;9.25;;;;;;;;;;5063615;28;20040;-82
2022/05/22 05:33:19;;;;;;;15.23;9.70;;;;;;;;;;5069525;28;20451;-81
2022/05/22 05:35:45;;;;;;;13.55;9.50;;;;;;;;;;5070358;28;20047;-82
2022/05/22 05:38:11;;;;;;;17.25;8.98;;;;;;;;;;5051101;28;20057;-82
2022/05/22 05:40:38;;;;;;;16.58;9.43;;;;;;;;;;5050125;28;20087;-81
2022/05/22 05:43:05;;;;;;;16.70;9.20;;;;;;;;;;5049600;28;20044;-81
2022/05/22 05:45:31;;;;;;;17.98;9.40;;;;;;;;;;5052267;28;20049;-81
2022/05/22 05:47:57;;;;;;;17.35;9.32;;;;;;;;;;5047646;28;20052;-81
2022/05/22 05:50:26;;;;;;;16.10;9.35;;;;;;;;;;5050075;28;20084;-82
2022/05/22 05:52:58;;;;;;;20.42;9.90;;;;;;;;;;5051073;28;20407;-82
2022/05/22 05:55:24;;;;;;;18.30;9.32;;;;;;;;;;5049787;28;20041;-81
2022/05/22 05:57:50;;;;;;;15.90;9.27;;;;;;;;;;5050700;28;20606;-81
2022/05/22 06:00:18;;;;;;;19.63;8.95;;;;;;;;;;5051811;28;20172;-82
2022/05/22 06:02:44;;;;;;;17.17;8.57;;;;;;;;;;5053769;28;20389;-82
2022/05/22 06:05:11;;;;;;;18.52;8.65;;;;;;;;;;5052075;28;20508;-81
2022/05/22 06:07:37;;;;;;;14.57;7.55;;;;;;;;;;5053304;28;20401;-88
2022/05/22 06:10:04;;;;;;;16.10;8.65;;;;;;;;;;5053050;28;20581;-81
2022/05/22 06:12:30;;;;;;;14.00;7.63;;;;;;;;;;5053628;28;20402;-81
2022/05/22 06:14:56;;;;;;;19.20;8.70;;;;;;;;;;5051892;28;20040;-81
2022/05/22 06:17:32;;;;;;;15.50;7.75;;;;;;;;;;5051932;28;20053;-81
2022/05/22 06:19:58;;;;;;;15.13;7.72;;;;;;;;;;5053440;28;20041;-81
2022/05/22 06:22:25;;;;;;;14.30;7.57;;;;;;;;;;5063308;28;20080;-81
2022/05/22 06:24:51;;;;;;;13.07;7.22;;;;;;;;;;5053591;28;20068;-81
2022/05/22 06:27:18;;;;;;;15.77;7.55;;;;;;;;;;5053024;28;20047;-81
2022/05/22 06:29:44;;;;;;;13.23;7.13;;;;;;;;;;5064333;28;20386;-82
2022/05/22 06:32:15;;;;;;;14.80;6.63;;;;;;;;;;5052937;28;20043;-81
2022/05/22 06:34:41;;;;;;;10.07;6.00;;;;;;;;;;5051543;28;20094;-81
2022/05/22 06:37:09;;;;;;;14.80;6.22;;;;;;;;;;5057088;28;20040;-81
2022/05/22 06:39:51;;;;;;;10.27;5.30;;;;;;;;;;5053312;28;20108;-85
2022/05/22 06:42:18;;;;;;;13.00;6.30;;;;;;;;;;5052193;28;20052;-81
2022/05/22 06:44:45;;;;;;;11.57;5.88;;;;;;;;;;5054346;28;20051;-81
2022/05/22 06:47:11;;;;;;;10.15;4.93;;;;;;;;;;5072065;28;20118;-82
2022/05/22 06:49:37;;;;;;;10.07;4.88;;;;;;;;;;5064442;28;20136;-82
2022/05/22 06:52:03;;;;;;;10.85;4.72;;;;;;;;;;5050929;28;20045;-87
2022/05/22 06:54:30;;;;;;;12.32;5.18;;;;;;;;;;5051615;28;20473;-84
2022/05/22 06:56:57;;;;;;;13.13;5.03;;;;;;;;;;5063655;28;20516;-82
2022/05/22 06:59:24;;;;;;;10.18;4.65;;;;;;;;;;5071725;28;20098;-82
2022/05/22 07:01:50;;;;;;;8.23;4.70;;;;;;;;;;5071317;28;20048;-83
2022/05/22 07:04:16;;;;;;;10.45;4.38;;;;;;;;;;5061974;28;20373;-83
2022/05/22 07:06:42;;;;;;;6.85;3.75;;;;;;;;;;5053591;28;20079;-83
2022/05/22 07:09:08;;;;;;;9.25;4.80;;;;;;;;;;5052378;28;20118;-86
2022/05/22 07:11:38;;;;;;;8.70;3.63;;;;;;;;;;5052539;28;20451;-83
2022/05/22 07:14:04;;;;;;;8.82;3.63;;;;;;;;;;5071187;28;20455;-80
2022/05/22 07:16:31;;;;;;;12.27;4.20;;;;;;;;;;5072106;28;20127;-81
2022/05/22 07:18:57;;;;;;;7.95;3.72;;;;;;;;;;5052443;28;20053;-81
2022/05/22 07:21:24;;;;;;;10.73;4.55;;;;;;;;;;5051454;28;20482;-82
2022/05/22 07:23:51;;;;;;;7.90;3.50;;;;;;;;;;5032533;28;20589;-81
2022/05/22 07:26:19;;;;;;;8.10;3.45;;;;;;;;;;5048765;28;20037;-81
2022/05/22 07:28:45;;;;;;;8.27;2.95;;;;;;;;;;5050813;28;20557;-81
2022/05/22 07:31:15;;;;;;;8.32;3.70;;;;;;;;;;5049274;28;20052;-81
2022/05/22 07:33:41;;;;;;;9.38;3.80;;;;;;;;;;5061689;28;20524;-81
2022/05/22 07:36:07;;;;;;;8.48;3.83;;;;;;;;;;5047162;28;20583;-79
2022/05/22 07:38:33;;;;;;;7.00;3.63;;;;;;;;;;5042881;28;20033;-79
2022/05/22 07:40:59;;;;;;;6.68;3.70;;;;;;;;;;5041196;28;20057;-79
2022/05/22 07:43:25;;;;;;;10.73;3.50;;;;;;;;;;5051414;28;20535;-82
2022/05/22 07:45:52;;;;;;;10.35;3.58;;;;;;;;;;5051449;28;20084;-81
2022/05/22 07:48:18;;;;;;;8.15;3.45;;;;;;;;;;5068656;28;20488;-81
2022/05/22 07:50:44;;;;;;;10.27;3.35;;;;;;;;;;5055013;28;20143;-81
2022/05/22 07:53:10;;;;;;;9.70;3.50;;;;;;;;;;5050488;28;20041;-84
2022/05/22 07:55:36;;;;;;;6.70;3.50;;;;;;;;;;5049789;28;20127;-81
2022/05/22 07:58:02;;;;;;;8.50;3.97;;;;;;;;;;5051434;28;20445;-81
2022/05/22 08:00:28;;;;;;;7.25;3.75;;;;;;;;;;5059014;28;20044;-83
2022/05/22 08:02:54;;;;;;;8.52;2.90;;;;;;;;;;5071212;28;20409;-82
2022/05/22 08:05:21;;;;;;;7.32;2.67;;;;;;;;;;5051798;28;20136;-81
2022/05/22 08:07:47;;;;;;;10.80;3.20;;;;;;;;;;5051461;28;20037;-81
2022/05/22 08:10:14;;;;;;;10.55;3.75;;;;;;;;;;5049029;28;20044;-82
2022/05/22 08:12:47;;;;;;;8.80;4.03;;;;;;;;;;5051092;28;20120;-91
2022/05/22 08:15:14;;;;;;;9.55;4.10;;;;;;;;;;5048593;28;20498;-81
2022/05/22 08:17:40;;;;;;;8.07;3.70;;;;;;;;;;5050125;28;20049;-81
2022/05/22 08:20:09;;;;;;;6.50;3.80;;;;;;;;;;5050866;28;20045;-81
2022/05/22 08:22:35;;;;;;;7.32;3.15;;;;;;;;;;5049914;28;20416;-82
2022/05/22 08:25:01;;;;;;;7.57;2.95;;;;;;;;;;5049729;28;20494;-82
2022/05/22 08:27:28;;;;;;;8.18;3.63;;;;;;;;;;5043913;28;20382;-81
2022/05/22 08:29:54;;;;;;;5.70;3.40;;;;;;;;;;5066267;28;20050;-81
2022/05/22 08:32:20;;;;;;;9.60;3.80;;;;;;;;;;5050081;28;20045;-82
2022/05/22 08:34:46;;;;;;;17.92;6.00;;;;;;;;;;5050117;28;20080;-82
2022/05/22 08:37:12;;;;;;;7.85;3.55;;;;;;;;;;5050053;28;20136;-82
2022/05/22 08:39:38;;;;;;;9.98;3.42;;;;;;;;;;5064967;28;20049;-82
2022/05/22 08:42:09;;;;;;;21.38;6.68;;;;;;;;;;5050558;28;20385;-83
2022/05/22 08:44:36;;;;;;;7.32;3.08;;;;;;;;;;5048949;28;20053;-82
2022/05/22 08:47:18;;;;;;;6.28;3.40;;;;;;;;;;5062767;28;20596;-82
2022/05/22 08:49:47;;;;;;;7.22;3.42;;;;;;;;;;5070873;28;20071;-83
2022/05/22 08:52:17;;;;;;;7.05;3.03;;;;;;;;;;5055693;28;20041;-82
2022/05/22 08:54:46;;;;;;;8.52;3.65;;;;;;;;;;5033383;28;20079;-82
2022/05/22 09:00:09;;;;;;;21.17;7.00;;;;;;;;;;5045739;28;20053;-82
2022/05/22 09:02:45;;;;;;;7.47;3.40;;;;;;;;;;5048396;28;20041;-82
2022/05/22 09:05:13;;;;;;;9.05;2.78;;;;;;;;;;5050768;28;20079;-82
2022/05/22 09:07:53;;;;;;;7.05;3.22;;;;;;;;;;5054249;28;20292;-82
2022/05/22 09:10:37;;;;;;;7.68;3.22;;;;;;;;;;5065256;28;20075;-82
2022/05/22 09:13:22;;;;;;;7.35;2.80;;;;;;;;;;5069803;28;20404;-82
2022/05/22 09:15:49;;;;;;;7.85;3.03;;;;;;;;;;5052497;28;20071;-82
2022/05/22 09:18:19;;;;;;;6.85;3.20;;;;;;;;;;5051677;28;20049;-82
2022/05/22 09:20:55;;;;;;;7.53;3.03;;;;;;;;;;5070540;28;20041;-82
2022/05/22 09:23:25;;;;;;;10.82;3.60;;;;;;;;;;5065488;28;20131;-82
2022/05/22 09:25:59;;;;;;;7.25;3.50;;;;;;;;;;5043400;28;20051;-82
2022/05/22 09:28:38;;;;;;;6.28;3.10;;;;;;;;;;5070120;28;20060;-82
2022/05/22 09:31:19;;;;;;;7.80;3.30;;;;;;;;;;5066016;28;20496;-81
2022/05/22 09:33:50;;;;;;;9.85;3.85;;;;;;;;;;5066487;28;20059;-84
2022/05/22 09:36:25;;;;;;;7.18;3.05;;;;;;;;;;5051885;28;20560;-81
2022/05/22 09:38:57;;;;;;;8.65;3.70;;;;;;;;;;5047734;28;20413;-82
2022/05/22 09:41:40;;;;;;;8.20;3.53;;;;;;;;;;5067716;28;20513;-82
2022/05/22 09:44:12;;;;;;;8.05;3.78;;;;;;;;;;5068502;28;20079;-81
2022/05/22 09:46:48;;;;;;;9.70;3.83;;;;;;;;;;5069989;28;20128;-82
2022/05/22 09:49:17;;;;;;;8.32;3.67;;;;;;;;;;5067854;28;20114;-83
2022/05/22 09:51:58;;;;;;;9.77;3.60;;;;;;;;;;5050257;28;20052;-84
2022/05/22 09:54:30;;;;;;;7.60;3.22;;;;;;;;;;5055464;28;20045;-84
2022/05/22 09:57:05;;;;;;;7.63;3.33;;;;;;;;;;5067309;28;20040;-83
2022/05/22 09:59:40;;;;;;;6.43;3.38;;;;;;;;;;5067829;28;20097;-82
2022/05/22 10:02:12;;;;;;;10.40;3.88;;;;;;;;;;5048939;28;20055;-82
2022/05/22 10:04:52;;;;;;;9.38;3.90;;;;;;;;;;5050337;28;20090;-88
2022/05/22 10:07:26;;;;;;;6.22;3.30;;;;;;;;;;5056414;28;20505;-80
2022/05/22 10:10:02;;;;;;;7.47;3.15;;;;;;;;;;5047908;28;20049;-81
2022/05/22 10:12:37;;;;;;;7.70;3.28;;;;;;;;;;5052070;28;20096;-85
2022/05/22 10:15:22;;;;;;;7.40;3.47;;;;;;;;;;5044371;28;20053;-85
2022/05/22 10:18:08;;;;;;;6.25;3.28;;;;;;;;;;5048812;28;20057;-82
2022/05/22 10:21:03;;;;;;;7.15;3.45;;;;;;;;;;5048874;28;20041;-82
2022/05/22 10:23:38;;;;;;;6.38;3.70;;;;;;;;;;4990819;28;20110;-82
2022/05/22 10:26:15;;;;;;;7.13;3.70;;;;;;;;;;5007964;28;20115;-82
2022/05/22 10:28:48;;;;;;;7.72;3.53;;;;;;;;;;4990961;28;20478;-82
2022/05/22 10:31:20;;;;;;;7.20;3.45;;;;;;;;;;5006378;28;20069;-82
2022/05/22 10:34:01;;;;;;;7.80;3.42;;;;;;;;;;4991313;28;20495;-82
2022/05/22 10:36:33;;;;;;;6.95;3.10;;;;;;;;;;5000133;28;20054;-82
2022/05/22 10:39:04;;;;;;;6.20;3.33;;;;;;;;;;5010113;28;20254;-82
2022/05/22 10:44:41;;;;;;;8.02;3.28;;;;;;;;;;5023831;28;20081;-84
2022/05/22 10:47:07;;;;;;;9.45;3.70;;;;;;;;;;5010433;28;20046;-85
2022/05/22 10:49:40;;;;;;;7.78;3.50;;;;;;;;;;4995796;28;20064;-86
2022/05/22 10:52:07;;;;;;;7.78;3.80;;;;;;;;;;4999941;28;20057;-82
2022/05/22 10:54:42;;;;;;;8.15;3.72;;;;;;;;;;5010431;28;20054;-82
2022/05/22 10:57:17;;;;;;;6.82;3.47;;;;;;;;;;5021822;28;20045;-88
2022/05/22 10:59:43;;;;;;;5.40;3.30;;;;;;;;;;5045872;28;20503;-86
2022/05/22 11:02:32;;;;;;;6.78;3.13;;;;;;;;;;5052037;28;20056;-82
2022/05/22 11:04:59;;;;;;;8.05;3.38;;;;;;;;;;5052985;28;20048;-89
2022/05/22 11:07:29;;;;;;;7.72;3.58;;;;;;;;;;5051165;28;20524;-83
2022/05/22 11:09:56;;;;;;;5.65;3.10;;;;;;;;;;5046424;28;20045;-89
2022/05/22 11:12:23;;;;;;;7.53;3.30;;;;;;;;;;5040268;28;20033;-83
2022/05/22 11:14:50;;;;;;;8.40;3.72;;;;;;;;;;5072781;28;20072;-85
2022/05/22 11:17:17;;;;;;;6.55;3.45;;;;;;;;;;5072469;28;20048;-84
2022/05/22 11:19:45;;;;;;;8.20;3.80;;;;;;;;;;5067032;28;20048;-82
2022/05/22 11:22:11;;;;;;;10.82;4.18;;;;;;;;;;5050189;28;20075;-82
2022/05/22 11:24:50;;;;;;;5.60;3.55;;;;;;;;;;5052711;28;20095;-81
2022/05/22 11:27:22;;;;;;;19.88;5.75;;;;;;;;;;5054374;28;20044;-83
2022/05/22 11:30:03;;;;;;;8.55;4.22;;;;;;;;;;5072621;28;20036;-82
2022/05/22 11:32:36;;;;;;;8.85;4.30;;;;;;;;;;5070113;28;20102;-83
2022/05/22 11:35:08;;;;;;;8.45;4.28;;;;;;;;;;5070885;28;20051;-82
2022/05/22 11:37:46;;;;;;;8.38;4.45;;;;;;;;;;5071985;28;20131;-82
2022/05/22 11:40:27;;;;;;;7.00;4.07;;;;;;;;;;5072067;28;20051;-83
2022/05/22 11:43:18;;;;;;;8.70;4.70;;;;;;;;;;5070829;28;20059;-82
2022/05/22 11:45:53;;;;;;;13.43;6.22;;;;;;;;;;5072120;28;20481;-82
2022/05/22 11:48:38;;;;;;;9.68;6.50;;;;;;;;;;5071710;28;20048;-82
2022/05/22 11:51:04;;;;;;;11.68;6.03;;;;;;;;;;5070104;28;20056;-82
2022/05/22 11:53:49;;;;;;;11.93;6.90;;;;;;;;;;5072143;28;20036;-82
2022/05/22 11:56:30;;;;;;;12.23;6.63;;;;;;;;;;5071192;28;20044;-82
2022/05/22 11:59:18;;;;;;;10.68;6.50;;;;;;;;;;5071440;28;20044;-82
2022/05/22 12:01:55;;;;;;;9.00;5.88;;;;;;;;;;5070598;28;20079;-82
2022/05/22 12:04:28;;;;;;;9.68;6.28;;;;;;;;;;5071869;28;20044;-82
2022/05/22 12:07:02;;;;;;;11.95;7.00;;;;;;;;;;5070770;28;20095;-82
2022/05/22 12:09:34;;;;;;;7.95;5.90;;;;;;;;;;5071847;28;20048;-82
2022/05/22 12:12:13;;;;;;;12.05;6.05;;;;;;;;;;5070278;28;20131;-82
2022/05/22 12:14:57;;;;;;;8.52;6.05;;;;;;;;;;5071997;28;20512;-82
2022/05/22 12:17:28;;;;;;;10.98;6.15;;;;;;;;;;5071432;28;20489;-82
2022/05/22 12:20:03;;;;;;;11.13;6.18;;;;;;;;;;5069611;28;20051;-83
2022/05/22 12:25:24;;;;;;;8.80;5.38;;;;;;;;;;5071079;28;20052;-82
2022/05/22 12:27:52;;;;;;;10.75;5.93;;;;;;;;;;5071132;28;20053;-83
2022/05/22 12:30:25;;;;;;;10.05;5.40;;;;;;;;;;5070261;28;20139;-83
2022/05/22 12:32:58;;;;;;;10.52;5.70;;;;;;;;;;5071231;28;20509;-82
2022/05/22 12:35:25;;;;;;;9.10;6.00;;;;;;;;;;5069359;28;20059;-82
2022/05/22 12:37:59;;;;;;;10.07;5.78;;;;;;;;;;5071034;28;20052;-83
2022/05/22 12:40:37;;;;;;;9.02;5.18;;;;;;;;;;5069709;28;20478;-83
2022/05/22 12:43:04;;;;;;;7.90;4.60;;;;;;;;;;5070740;28;20036;-82
2022/05/22 12:45:31;;;;;;;10.50;5.57;;;;;;;;;;5071038;28;20132;-82
2022/05/22 12:48:09;;;;;;;9.60;4.03;;;;;;;;;;5070658;28;20496;-82
2022/05/22 12:50:48;;;;;;;11.70;5.32;;;;;;;;;;5068955;28;20115;-82
2022/05/22 12:53:28;;;;;;;8.25;4.95;;;;;;;;;;5069185;28;20123;-82
2022/05/22 12:55:55;;;;;;;8.15;4.68;;;;;;;;;;5070279;28;20052;-82
2022/05/22 12:58:39;;;;;;;9.30;4.20;;;;;;;;;;5069381;28;20052;-83
2022/05/22 13:01:24;;;;;;;11.27;4.93;;;;;;;;;;5070271;28;20045;-83
2022/05/22 13:03:52;;;;;;;8.43;4.45;;;;;;;;;;5070226;28;20089;-82
2022/05/22 13:06:22;;;;;;;8.05;4.25;;;;;;;;;;5069250;28;20053;-82
2022/05/22 13:08:50;;;;;;;7.43;4.10;;;;;;;;;;5068956;28;20048;-83
2022/05/22 13:11:18;;;;;;;5.90;3.90;;;;;;;;;;5068888;28;20060;-82
2022/05/22 13:13:49;;;;;;;8.15;4.60;;;;;;;;;;5069022;28;20060;-82
2022/05/22 13:16:24;;;;;;;7.47;3.88;;;;;;;;;;5070061;28;20474;-82
2022/05/22 13:18:50;;;;;;;8.65;4.30;;;;;;;;;;5051945;28;20135;-82
2022/05/22 13:21:28;;;;;;;10.13;4.45;;;;;;;;;;5068553;28;20083;-82
2022/05/22 13:24:01;;;;;;;8.80;3.88;;;;;;;;;;5069937;28;20405;-82
2022/05/22 13:26:32;;;;;;;8.00;3.75;;;;;;;;;;5068658;28;20127;-83
2022/05/22 13:29:01;;;;;;;8.98;4.20;;;;;;;;;;5068623;28;20056;-82
2022/05/22 13:31:33;;;;;;;6.32;3.65;;;;;;;;;;5068925;28;20397;-82
2022/05/22 13:34:02;;;;;;;6.85;3.83;;;;;;;;;;5068297;28;20075;-82
2022/05/22 13:36:32;;;;;;;6.13;3.28;;;;;;;;;;5069017;28;20102;-82
2022/05/22 13:39:01;;;;;;;6.80;3.90;;;;;;;;;;5069646;28;20408;-83
2022/05/22 13:41:45;;;;;;;6.65;3.42;;;;;;;;;;5070219;28;20039;-82
2022/05/22 13:44:40;;;;;;;7.22;3.53;;;;;;;;;;5069783;28;20416;-82
2022/05/22 13:47:16;;;;;;;8.95;3.70;;;;;;;;;;5009740;28;20406;-82
2022/05/22 13:53:06;;;;;;;5.65;3.42;;;;;;;;;;5027475;28;20125;-82
2022/05/22 13:55:32;;;;;;;;;;;;;;;;;;4981797;28;20084;-82
2022/05/22 13:58:09;;;;;;;7.25;3.40;;;;;;;;;;5027319;28;20014;-82
2022/05/22 14:00:37;;;;;;;5.10;3.10;;;;;;;;;;5011216;28;20497;-82
2022/05/22 14:03:06;;;;;;;8.48;3.50;;;;;;;;;;5010000;28;20071;-82
2022/05/22 14:05:37;;;;;;;8.50;3.35;;;;;;;;;;5010984;28;20107;-82
2022/05/22 14:08:08;;;;;;;5.03;3.40;;;;;;;;;;5027138;28;20192;-82
2022/05/22 14:10:36;;;;;;;6.28;3.38;;;;;;;;;;5010836;28;20422;-82
2022/05/22 14:13:15;;;;;;;8.68;4.93;;;;;;;;;;5026996;28;20104;-82
2022/05/22 14:15:47;;;;;;;8.23;3.17;;;;;;;;;;5026971;28;20049;-82
2022/05/22 14:18:15;;;;;;;7.47;3.22;;;;;;;;;;5010849;28;20062;-82
2022/05/22 14:20:43;;;;;;;7.22;3.33;;;;;;;;;;5012543;28;20049;-82
2022/05/22 14:23:09;;;;;;;6.30;3.13;;;;;;;;;;5032927;28;20052;-82
2022/05/22 14:25:35;;;;;;;5.50;3.08;;;;;;;;;;5073585;28;20105;-82
2022/05/22 14:28:04;;;;;;;7.15;2.95;;;;;;;;;;5072342;28;20048;-82
2022/05/22 14:30:30;;;;;;;7.00;3.50;;;;;;;;;;5073171;28;20564;-82
2022/05/22 14:32:58;;;;;;;6.22;3.30;;;;;;;;;;5072981;28;20097;-82
2022/05/22 14:35:32;;;;;;;7.38;3.42;;;;;;;;;;5073700;28;20047;-83
2022/05/22 14:37:58;;;;;;;7.57;3.42;;;;;;;;;;5071679;28;20048;-83
2022/05/22 14:40:32;;;;;;;7.68;3.80;;;;;;;;;;5073386;28;20515;-82
2022/05/22 14:43:00;;;;;;;6.57;3.38;;;;;;;;;;5072364;28;20538;-82
2022/05/22 14:45:37;;;;;;;9.00;3.50;;;;;;;;;;5071658;28;20105;-82
2022/05/22 14:48:08;;;;;;;6.43;3.08;;;;;;;;;;5073136;28;20056;-82
2022/05/22 14:50:35;;;;;;;7.45;3.40;;;;;;;;;;5073210;28;20170;-82
2022/05/22 14:53:06;;;;;;;4.97;2.88;;;;;;;;;;5071538;28;20048;-82
2022/05/22 14:55:38;;;;;;;6.60;3.47;;;;;;;;;;5071535;28;20137;-82
2022/05/22 14:58:04;;;;;;;6.57;3.50;;;;;;;;;;5071615;28;20040;-82
2022/05/22 15:00:34;;;;;;;7.72;3.40;;;;;;;;;;5071312;28;20124;-82
2022/05/22 15:03:09;;;;;;;8.68;3.38;;;;;;;;;;5072579;28;20040;-82
2022/05/22 15:05:37;;;;;;;7.40;3.30;;;;;;;;;;5072750;28;20040;-82
2022/05/22 15:08:06;;;;;;;6.95;3.33;;;;;;;;;;5072423;28;20066;-82